Time;durP1;ratioP1;P1;durP2;ratioP2;P2;SDS_P1;SDS_P2;PMS_P1;PMS_P2;Temp;Humidity;BMP_temperature;BMP_pressure;BME280_temperature;BME280_humidity;BME280_pressure;Samples;Min_cycle;Max_cycle;Signal;HPM_P1;HPM_P2
2021/06/30 00:00:15;;;;;;;5.50;5.10;;;;;;;;;;5053503;28;20029;-61
2021/06/30 00:02:40;;;;;;;6.43;5.82;;;;;;;;;;5055521;28;20415;-61
2021/06/30 00:05:07;;;;;;;6.70;5.85;;;;;;;;;;5055383;28;20132;-61
2021/06/30 00:07:33;;;;;;;6.10;5.63;;;;;;;;;;5037274;28;20028;-61
2021/06/30 00:09:59;;;;;;;6.20;5.80;;;;;;;;;;5055076;28;20021;-61
2021/06/30 00:12:25;;;;;;;6.72;5.88;;;;;;;;;;5055097;28;20361;-61
2021/06/30 00:14:51;;;;;;;5.90;5.40;;;;;;;;;;5053976;28;20106;-61
2021/06/30 00:17:18;;;;;;;6.45;5.95;;;;;;;;;;5054091;28;20032;-61
2021/06/30 00:19:44;;;;;;;4.28;3.70;;;;;;;;;;5055074;28;20037;-62
2021/06/30 00:22:09;;;;;;;5.57;4.95;;;;;;;;;;5053929;28;20029;-62
2021/06/30 00:24:35;;;;;;;6.20;5.60;;;;;;;;;;5054852;28;20103;-62
2021/06/30 00:27:01;;;;;;;7.00;5.60;;;;;;;;;;5054782;28;20473;-62
2021/06/30 00:29:26;;;;;;;6.05;5.22;;;;;;;;;;5053608;28;20036;-62
2021/06/30 00:31:52;;;;;;;8.80;4.55;;;;;;;;;;5054355;28;20017;-62
2021/06/30 00:34:18;;;;;;;8.10;5.15;;;;;;;;;;5054673;28;20059;-62
2021/06/30 00:36:44;;;;;;;10.18;5.78;;;;;;;;;;5054146;28;20023;-62
2021/06/30 00:39:10;;;;;;;9.32;5.53;;;;;;;;;;5054626;28;20033;-61
2021/06/30 00:41:36;;;;;;;7.03;5.28;;;;;;;;;;5054892;28;20411;-61
2021/06/30 00:44:01;;;;;;;6.72;5.70;;;;;;;;;;5053274;28;20033;-62
2021/06/30 00:46:27;;;;;;;11.23;6.50;;;;;;;;;;5054457;28;20473;-62
2021/06/30 00:48:54;;;;;;;12.77;5.85;;;;;;;;;;5054666;28;20024;-62
2021/06/30 00:51:19;;;;;;;11.63;5.43;;;;;;;;;;5054608;28;20467;-62
2021/06/30 00:53:45;;;;;;;6.38;5.07;;;;;;;;;;5054390;28;20033;-62
2021/06/30 00:56:10;;;;;;;5.72;5.03;;;;;;;;;;5054250;28;20017;-62
2021/06/30 00:58:36;;;;;;;9.18;4.85;;;;;;;;;;5054437;28;20029;-62
2021/06/30 01:01:01;;;;;;;10.05;4.95;;;;;;;;;;5054013;28;20052;-62
2021/06/30 01:03:28;;;;;;;4.95;4.57;;;;;;;;;;5052864;28;20033;-62
2021/06/30 01:05:53;;;;;;;7.70;4.93;;;;;;;;;;5053030;28;20090;-63
2021/06/30 01:08:19;;;;;;;4.90;4.50;;;;;;;;;;5053918;28;20032;-63
2021/06/30 01:10:44;;;;;;;4.88;4.28;;;;;;;;;;5053926;28;20028;-62
2021/06/30 01:13:10;;;;;;;7.78;4.40;;;;;;;;;;5053841;28;20036;-62
2021/06/30 01:15:45;;;;;;;4.25;3.95;;;;;;;;;;5052578;28;20426;-62
2021/06/30 01:18:11;;;;;;;3.95;3.42;;;;;;;;;;5053974;28;20029;-62
2021/06/30 01:20:36;;;;;;;3.60;3.08;;;;;;;;;;5053784;28;20093;-62
2021/06/30 01:23:08;;;;;;;6.30;3.45;;;;;;;;;;5053987;28;20025;-62
2021/06/30 01:25:34;;;;;;;4.75;3.20;;;;;;;;;;5053757;28;20029;-62
2021/06/30 01:27:59;;;;;;;3.33;3.03;;;;;;;;;;5053800;28;20163;-62
2021/06/30 01:30:25;;;;;;;5.18;3.17;;;;;;;;;;5053347;28;20040;-62
2021/06/30 01:32:50;;;;;;;3.83;2.92;;;;;;;;;;5053854;28;20112;-62
2021/06/30 01:35:22;;;;;;;3.08;2.75;;;;;;;;;;5053941;28;20549;-62
2021/06/30 01:37:49;;;;;;;3.17;2.75;;;;;;;;;;5053469;28;20056;-62
2021/06/30 01:40:15;;;;;;;4.70;2.85;;;;;;;;;;5053427;28;20017;-62
2021/06/30 01:42:45;;;;;;;6.45;2.65;;;;;;;;;;5052410;28;20112;-62
2021/06/30 01:45:10;;;;;;;5.00;2.27;;;;;;;;;;5051411;28;20428;-62
2021/06/30 01:47:36;;;;;;;3.50;2.40;;;;;;;;;;5053109;28;20104;-62
2021/06/30 01:50:02;;;;;;;2.90;2.53;;;;;;;;;;5053336;28;20071;-62
2021/06/30 01:52:29;;;;;;;2.92;2.63;;;;;;;;;;5053451;28;20021;-62
2021/06/30 01:54:57;;;;;;;3.13;2.85;;;;;;;;;;5053496;28;20017;-62
2021/06/30 01:57:23;;;;;;;2.50;2.30;;;;;;;;;;5053965;28;20041;-62
2021/06/30 02:12:24;;;;;;;5.57;2.30;;;;;;;;;;6160338;22;1590528;-60
2021/06/30 02:14:50;;;;;;;4.30;2.50;;;;;;;;;;6224610;23;20450;-60
2021/06/30 02:17:18;;;;;;;5.07;2.72;;;;;;;;;;6224655;23;20004;-61
2021/06/30 02:19:44;;;;;;;7.15;3.40;;;;;;;;;;6197620;23;20432;-59
2021/06/30 02:22:10;;;;;;;4.72;2.60;;;;;;;;;;6224571;23;20001;-60
2021/06/30 02:24:35;;;;;;;3.90;2.70;;;;;;;;;;6224342;23;20420;-60
2021/06/30 02:27:00;;;;;;;2.40;2.25;;;;;;;;;;6224339;23;20000;-60
2021/06/30 02:29:26;;;;;;;4.53;2.80;;;;;;;;;;6224832;23;20001;-60
2021/06/30 02:31:51;;;;;;;2.83;2.50;;;;;;;;;;6224463;23;20005;-60
2021/06/30 02:34:17;;;;;;;4.90;2.70;;;;;;;;;;6224519;23;20004;-59
2021/06/30 02:36:42;;;;;;;5.53;2.53;;;;;;;;;;6173251;23;20335;-61
2021/06/30 02:39:08;;;;;;;2.60;2.50;;;;;;;;;;6225016;23;20008;-60
2021/06/30 02:41:33;;;;;;;3.88;3.10;;;;;;;;;;6224888;23;19996;-60
2021/06/30 02:43:59;;;;;;;3.15;2.47;;;;;;;;;;6198027;23;20000;-61
2021/06/30 02:46:24;;;;;;;3.28;2.55;;;;;;;;;;6224352;23;19997;-60
2021/06/30 02:48:50;;;;;;;2.95;2.75;;;;;;;;;;6224308;23;20004;-60
2021/06/30 02:51:15;;;;;;;8.02;3.17;;;;;;;;;;6224088;23;20420;-59
2021/06/30 02:53:40;;;;;;;6.22;3.00;;;;;;;;;;6224471;23;20012;-59
2021/06/30 02:56:06;;;;;;;5.20;3.20;;;;;;;;;;6224618;23;20360;-60
2021/06/30 02:58:31;;;;;;;4.45;2.88;;;;;;;;;;6224343;23;20004;-61
2021/06/30 03:00:58;;;;;;;4.35;2.63;;;;;;;;;;6197486;23;19996;-60
2021/06/30 03:03:23;;;;;;;4.03;2.83;;;;;;;;;;6197827;23;20005;-61
2021/06/30 03:05:49;;;;;;;3.05;2.75;;;;;;;;;;6224322;23;20023;-61
2021/06/30 03:08:14;;;;;;;3.28;3.08;;;;;;;;;;6223901;23;20088;-60
2021/06/30 03:10:40;;;;;;;5.10;2.70;;;;;;;;;;6230368;23;20012;-61
2021/06/30 03:13:06;;;;;;;3.45;2.72;;;;;;;;;;6248063;23;20035;-60
2021/06/30 03:15:32;;;;;;;3.42;2.55;;;;;;;;;;6220609;23;20016;-60
2021/06/30 03:17:58;;;;;;;2.97;2.60;;;;;;;;;;6247616;23;20004;-60
2021/06/30 03:20:23;;;;;;;3.83;3.05;;;;;;;;;;6220831;23;20438;-60
2021/06/30 03:22:48;;;;;;;3.42;3.00;;;;;;;;;;6247602;23;20332;-60
2021/06/30 03:25:14;;;;;;;3.95;3.20;;;;;;;;;;6221287;23;19996;-61
2021/06/30 03:27:41;;;;;;;3.83;3.10;;;;;;;;;;6247629;23;20416;-60
2021/06/30 03:30:08;;;;;;;3.13;2.90;;;;;;;;;;6247467;23;20343;-60
2021/06/30 03:32:33;;;;;;;2.95;2.58;;;;;;;;;;6220707;23;20075;-60
2021/06/30 03:34:59;;;;;;;3.35;3.00;;;;;;;;;;6247507;23;20102;-60
2021/06/30 03:37:24;;;;;;;6.07;4.30;;;;;;;;;;6221203;23;20309;-60
2021/06/30 03:39:50;;;;;;;7.22;3.90;;;;;;;;;;6220280;23;20336;-60
2021/06/30 03:42:15;;;;;;;3.63;3.20;;;;;;;;;;6247176;23;20000;-60
2021/06/30 03:44:41;;;;;;;3.13;2.90;;;;;;;;;;6247169;23;19996;-60
2021/06/30 03:47:06;;;;;;;3.47;3.08;;;;;;;;;;6247214;23;20360;-60
2021/06/30 03:49:32;;;;;;;5.70;3.67;;;;;;;;;;6247023;23;20330;-60
2021/06/30 03:51:57;;;;;;;3.85;3.13;;;;;;;;;;6220327;23;20079;-60
2021/06/30 03:54:25;;;;;;;4.20;3.13;;;;;;;;;;6247264;23;20003;-60
2021/06/30 03:56:53;;;;;;;3.70;3.40;;;;;;;;;;6247351;23;20010;-60
2021/06/30 03:59:22;;;;;;;3.60;3.40;;;;;;;;;;6247273;23;20320;-60
2021/06/30 04:01:48;;;;;;;4.07;3.75;;;;;;;;;;6246863;23;20066;-60
2021/06/30 04:04:14;;;;;;;3.80;3.50;;;;;;;;;;6247353;23;20026;-61
2021/06/30 04:06:40;;;;;;;4.45;3.40;;;;;;;;;;6247177;23;20133;-60
2021/06/30 04:09:06;;;;;;;3.85;3.55;;;;;;;;;;6246744;23;20027;-61
2021/06/30 04:11:32;;;;;;;5.35;3.70;;;;;;;;;;6246643;23;20020;-60
2021/06/30 04:13:59;;;;;;;3.75;3.45;;;;;;;;;;6247141;23;20420;-61
2021/06/30 04:16:27;;;;;;;5.05;3.45;;;;;;;;;;6246887;23;20058;-60
2021/06/30 04:18:52;;;;;;;3.67;3.42;;;;;;;;;;6246814;23;20000;-61
2021/06/30 04:21:18;;;;;;;3.95;3.65;;;;;;;;;;6246553;23;20036;-61
2021/06/30 04:23:43;;;;;;;3.83;3.53;;;;;;;;;;6246237;23;19999;-60
2021/06/30 04:26:09;;;;;;;4.10;3.70;;;;;;;;;;6246645;23;20023;-61
2021/06/30 04:28:36;;;;;;;4.88;4.32;;;;;;;;;;6219665;23;20003;-61
2021/06/30 04:31:02;;;;;;;5.20;3.83;;;;;;;;;;6219604;23;20095;-60
2021/06/30 04:33:31;;;;;;;4.82;3.63;;;;;;;;;;6246733;23;20031;-60
2021/06/30 04:35:57;;;;;;;4.20;3.90;;;;;;;;;;6246596;23;20038;-60
2021/06/30 04:38:25;;;;;;;4.68;4.25;;;;;;;;;;6246627;23;19996;-61
2021/06/30 04:40:51;;;;;;;4.55;4.13;;;;;;;;;;6246179;23;20083;-62
2021/06/30 04:43:18;;;;;;;4.68;4.28;;;;;;;;;;6246782;23;19992;-62
2021/06/30 04:45:43;;;;;;;5.70;4.97;;;;;;;;;;6247070;23;20281;-63
2021/06/30 04:48:09;;;;;;;5.63;4.55;;;;;;;;;;6247017;23;19999;-63
2021/06/30 04:50:34;;;;;;;5.63;4.07;;;;;;;;;;6247321;23;20008;-64
2021/06/30 04:53:00;;;;;;;4.43;4.05;;;;;;;;;;6246793;23;20001;-64
2021/06/30 04:55:25;;;;;;;4.72;4.22;;;;;;;;;;6246693;23;20008;-63
2021/06/30 04:57:51;;;;;;;4.50;4.13;;;;;;;;;;6246616;23;20083;-62
2021/06/30 05:00:16;;;;;;;4.07;3.83;;;;;;;;;;6219826;23;20364;-64
2021/06/30 11:06:30;;;;;;;2.17;1.83;;;;;;;;;;6221096;23;20399;-60
2021/06/30 11:09:08;;;;;;;1.95;1.85;;;;;;;;;;6248072;23;20328;-60
2021/06/30 11:11:35;;;;;;;2.22;1.92;;;;;;;;;;6246995;23;20019;-59
2021/06/30 11:14:03;;;;;;;2.10;1.92;;;;;;;;;;6247949;23;20004;-60
2021/06/30 11:16:39;;;;;;;2.53;2.40;;;;;;;;;;6247711;23;20004;-60
2021/06/30 11:19:17;;;;;;;2.13;2.03;;;;;;;;;;6247364;23;20019;-60
2021/06/30 11:22:01;;;;;;;3.78;1.90;;;;;;;;;;6247311;23;20083;-60
2021/06/30 11:24:32;;;;;;;2.35;2.05;;;;;;;;;;6247576;23;20054;-60
2021/06/30 11:26:58;;;;;;;3.13;1.83;;;;;;;;;;6247838;23;20465;-60
2021/06/30 11:32:08;;;;;;;2.67;2.25;;;;;;;;;;6247115;23;20008;-60
2021/06/30 11:34:39;;;;;;;2.20;2.10;;;;;;;;;;6220334;23;20035;-60
2021/06/30 11:37:05;;;;;;;2.15;2.05;;;;;;;;;;6247406;23;20004;-60
2021/06/30 11:39:33;;;;;;;4.15;2.33;;;;;;;;;;6247310;23;20305;-60
2021/06/30 11:41:59;;;;;;;2.13;2.00;;;;;;;;;;6220336;23;20012;-60
2021/06/30 11:44:38;;;;;;;1.88;1.65;;;;;;;;;;6247091;23;19996;-60
2021/06/30 11:47:10;;;;;;;2.15;1.98;;;;;;;;;;6247218;23;20012;-60
2021/06/30 11:49:40;;;;;;;3.95;2.20;;;;;;;;;;6247177;23;20007;-60
2021/06/30 11:52:08;;;;;;;;;;;;;;;;;;6247653;23;20027;-60
2021/06/30 11:54:39;;;;;;;2.55;2.35;;;;;;;;;;6247211;23;19935;-60
2021/06/30 11:57:05;;;;;;;4.15;1.90;;;;;;;;;;6247251;23;20004;-59
2021/06/30 11:59:36;;;;;;;1.77;1.67;;;;;;;;;;6247300;23;20004;-60
2021/06/30 12:02:03;;;;;;;1.67;1.58;;;;;;;;;;6246974;23;20027;-60
2021/06/30 12:04:32;;;;;;;1.85;1.75;;;;;;;;;;6247134;23;19992;-60
2021/06/30 12:07:05;;;;;;;2.60;2.05;;;;;;;;;;6220814;23;20000;-61
2021/06/30 12:09:30;;;;;;;2.25;1.63;;;;;;;;;;6247068;23;20011;-61
2021/06/30 12:12:19;;;;;;;1.92;1.83;;;;;;;;;;6246467;23;20398;-60
2021/06/30 12:14:47;;;;;;;2.00;1.90;;;;;;;;;;6220109;23;20339;-60
2021/06/30 12:17:36;;;;;;;3.35;1.80;;;;;;;;;;6247005;23;20007;-60
2021/06/30 12:23:26;;;;;;;3.45;1.88;;;;;;;;;;6247051;23;20008;-61
2021/06/30 12:29:00;;;;;;;1.90;1.75;;;;;;;;;;6246897;23;20074;-60
2021/06/30 12:31:27;;;;;;;2.92;1.88;;;;;;;;;;6246668;23;20004;-60
2021/06/30 12:33:54;;;;;;;3.08;1.83;;;;;;;;;;6219731;23;20004;-60
2021/06/30 12:36:25;;;;;;;1.83;1.73;;;;;;;;;;6246739;23;20062;-60
2021/06/30 12:39:15;;;;;;;2.80;1.75;;;;;;;;;;6246759;23;20012;-60
2021/06/30 12:42:00;;;;;;;1.95;1.73;;;;;;;;;;6246800;23;20008;-60
2021/06/30 12:44:30;;;;;;;2.00;1.90;;;;;;;;;;6246268;23;20008;-60
2021/06/30 12:47:18;;;;;;;1.70;1.60;;;;;;;;;;6246834;23;20004;-60
2021/06/30 12:49:56;;;;;;;1.67;1.55;;;;;;;;;;6246791;23;20328;-60
2021/06/30 12:52:22;;;;;;;1.67;1.58;;;;;;;;;;6246680;23;20012;-60
2021/06/30 12:55:05;;;;;;;4.25;1.65;;;;;;;;;;6246541;23;19996;-60
2021/06/30 13:00:22;;;;;;;1.75;1.65;;;;;;;;;;6219343;23;20004;-60
2021/06/30 13:03:07;;;;;;;4.07;1.80;;;;;;;;;;6246549;23;20027;-60
2021/06/30 13:06:08;;;;;;;2.45;1.88;;;;;;;;;;6246769;23;20065;-60
2021/06/30 13:16:33;;;;;;;3.60;2.45;;;;;;;;;;6246858;23;20075;-60
2021/06/30 13:23:31;;;;;;;5.60;3.05;;;;;;;;;;6246821;23;20019;-60
2021/06/30 13:26:21;;;;;;;8.90;3.43;;;;;;;;;;6246374;23;20063;-60
2021/06/30 13:35:27;;;;;;;3.70;3.40;;;;;;;;;;6246482;23;20004;-60
2021/06/30 13:37:55;;;;;;;5.10;3.88;;;;;;;;;;6246479;23;20022;-60
2021/06/30 13:40:51;;;;;;;4.55;3.28;;;;;;;;;;6246109;23;19996;-60
2021/06/30 13:43:24;;;;;;;5.85;3.22;;;;;;;;;;6071360;23;20010;-60
2021/06/30 13:46:03;;;;;;;4.75;2.92;;;;;;;;;;6094874;23;20435;-60
2021/06/30 13:51:33;;;;;;;2.70;2.50;;;;;;;;;;6246638;23;20083;-59
2021/06/30 13:54:07;;;;;;;3.58;2.40;;;;;;;;;;6219868;23;20359;-59
2021/06/30 14:00:09;;;;;;;2.60;2.40;;;;;;;;;;6246362;23;20079;-61
2021/06/30 14:02:42;;;;;;;2.50;2.40;;;;;;;;;;6246008;23;20010;-61
2021/06/30 14:05:17;;;;;;;3.92;2.47;;;;;;;;;;6246072;23;20385;-61
2021/06/30 14:07:51;;;;;;;2.30;2.20;;;;;;;;;;6246081;23;20375;-61
2021/06/30 14:10:37;;;;;;;2.35;2.08;;;;;;;;;;6246070;23;20028;-61
2021/06/30 14:13:09;;;;;;;3.53;2.30;;;;;;;;;;6245721;23;20375;-61
2021/06/30 14:15:37;;;;;;;2.33;2.13;;;;;;;;;;6246143;23;20004;-61
2021/06/30 14:18:09;;;;;;;2.40;2.20;;;;;;;;;;6246140;23;20007;-61
2021/06/30 14:20:41;;;;;;;2.22;2.00;;;;;;;;;;6219029;23;20075;-61
2021/06/30 14:23:15;;;;;;;1.98;1.80;;;;;;;;;;6245984;23;20092;-61
2021/06/30 14:25:48;;;;;;;1.90;1.80;;;;;;;;;;6246655;23;20000;-61
2021/06/30 14:28:27;;;;;;;2.33;2.13;;;;;;;;;;6246580;23;20004;-61
2021/06/30 14:31:27;;;;;;;2.40;2.20;;;;;;;;;;6246200;23;20015;-61
2021/06/30 14:33:53;;;;;;;2.83;2.00;;;;;;;;;;6219257;23;20339;-61
2021/06/30 14:36:26;;;;;;;1.80;1.75;;;;;;;;;;6245947;23;20023;-61
2021/06/30 14:38:54;;;;;;;2.17;2.08;;;;;;;;;;6246095;23;20008;-61
2021/06/30 14:41:19;;;;;;;1.92;1.83;;;;;;;;;;6245780;23;20069;-61
2021/06/30 14:43:45;;;;;;;1.98;1.88;;;;;;;;;;6219088;23;20083;-61
2021/06/30 14:46:19;;;;;;;1.83;1.73;;;;;;;;;;6245995;23;19997;-61
2021/06/30 14:49:04;;;;;;;2.92;1.98;;;;;;;;;;6246030;23;20027;-61
2021/06/30 14:51:36;;;;;;;2.10;1.90;;;;;;;;;;6245810;23;20078;-61
2021/06/30 14:54:01;;;;;;;1.67;1.58;;;;;;;;;;6218290;23;20016;-61
2021/06/30 14:56:27;;;;;;;1.73;1.63;;;;;;;;;;6219303;23;20058;-61
2021/06/30 14:58:52;;;;;;;2.75;1.80;;;;;;;;;;6245865;23;20004;-61
2021/06/30 15:01:18;;;;;;;1.63;1.52;;;;;;;;;;6245843;23;20367;-65
2021/06/30 15:03:43;;;;;;;3.03;1.90;;;;;;;;;;6246511;23;20012;-61
2021/06/30 15:06:09;;;;;;;1.60;1.50;;;;;;;;;;6245976;23;20328;-61
2021/06/30 15:08:34;;;;;;;3.00;1.80;;;;;;;;;;6246959;23;20006;-61
2021/06/30 15:11:00;;;;;;;1.92;1.83;;;;;;;;;;6246479;23;20079;-62
2021/06/30 15:13:28;;;;;;;4.07;2.00;;;;;;;;;;6248247;23;20008;-61
2021/06/30 15:15:54;;;;;;;2.20;2.05;;;;;;;;;;6248277;23;20032;-61
2021/06/30 15:18:21;;;;;;;2.75;1.77;;;;;;;;;;6247841;23;20027;-61
2021/06/30 15:20:46;;;;;;;2.00;1.77;;;;;;;;;;6220727;23;20024;-61
2021/06/30 15:23:12;;;;;;;1.63;1.52;;;;;;;;;;6247550;23;20008;-61
2021/06/30 15:25:40;;;;;;;3.25;1.80;;;;;;;;;;6220573;23;20054;-61
2021/06/30 15:28:06;;;;;;;2.05;1.73;;;;;;;;;;6247740;23;20000;-61
2021/06/30 15:30:32;;;;;;;3.30;1.75;;;;;;;;;;6247606;23;20031;-61
2021/06/30 15:32:57;;;;;;;1.90;1.80;;;;;;;;;;6247608;23;20016;-61
2021/06/30 15:35:23;;;;;;;1.83;1.73;;;;;;;;;;6247272;23;20007;-61
2021/06/30 15:37:49;;;;;;;1.92;1.83;;;;;;;;;;6247312;23;20004;-61
2021/06/30 15:40:15;;;;;;;2.25;1.92;;;;;;;;;;6247434;23;20000;-61
2021/06/30 15:42:42;;;;;;;2.83;2.03;;;;;;;;;;6220657;23;20008;-61
2021/06/30 15:45:08;;;;;;;2.45;2.03;;;;;;;;;;6247608;23;20008;-62
2021/06/30 15:47:34;;;;;;;1.90;1.80;;;;;;;;;;6247260;23;20004;-61
2021/06/30 15:49:59;;;;;;;2.00;1.75;;;;;;;;;;6220666;23;20070;-61
2021/06/30 15:52:25;;;;;;;2.15;2.00;;;;;;;;;;6247184;23;20035;-62
2021/06/30 15:54:50;;;;;;;2.55;2.10;;;;;;;;;;6247165;23;20379;-61
2021/06/30 15:57:16;;;;;;;1.90;1.80;;;;;;;;;;6247214;23;20012;-61
2021/06/30 15:59:41;;;;;;;2.42;2.10;;;;;;;;;;6247556;23;20022;-61
2021/06/30 16:02:07;;;;;;;2.67;1.90;;;;;;;;;;6246995;23;20014;-61
2021/06/30 16:04:33;;;;;;;2.28;2.00;;;;;;;;;;6247551;23;20323;-61
2021/06/30 16:06:58;;;;;;;2.65;1.80;;;;;;;;;;6247531;23;20046;-61
2021/06/30 16:09:25;;;;;;;3.33;1.77;;;;;;;;;;6247912;23;20400;-61
2021/06/30 16:11:50;;;;;;;2.05;1.95;;;;;;;;;;6246667;22;20513;-62
2021/06/30 16:14:16;;;;;;;2.10;2.00;;;;;;;;;;6247375;23;20087;-61
2021/06/30 16:16:42;;;;;;;2.05;1.92;;;;;;;;;;6247341;23;20012;-61
2021/06/30 16:19:12;;;;;;;2.20;1.90;;;;;;;;;;6247149;23;20075;-62
2021/06/30 16:21:41;;;;;;;2.22;1.92;;;;;;;;;;6247217;23;20058;-61
2021/06/30 16:24:10;;;;;;;2.00;1.90;;;;;;;;;;6219989;23;20003;-62
2021/06/30 16:26:36;;;;;;;2.42;1.77;;;;;;;;;;6247273;23;20008;-61
2021/06/30 16:29:03;;;;;;;2.28;2.17;;;;;;;;;;6247003;23;20065;-61
2021/06/30 16:31:28;;;;;;;2.10;2.00;;;;;;;;;;6219993;23;20004;-62
2021/06/30 16:33:55;;;;;;;1.90;1.80;;;;;;;;;;6246827;23;20007;-61
2021/06/30 16:36:20;;;;;;;1.88;1.80;;;;;;;;;;6246829;23;20031;-61
2021/06/30 16:38:46;;;;;;;2.53;2.17;;;;;;;;;;6246720;23;20416;-61
2021/06/30 16:41:11;;;;;;;2.20;2.08;;;;;;;;;;6247017;23;20044;-61
2021/06/30 16:43:37;;;;;;;2.30;2.13;;;;;;;;;;6246379;23;19996;-62
2021/06/30 16:46:03;;;;;;;2.28;2.05;;;;;;;;;;6247006;23;20059;-61
2021/06/30 16:48:28;;;;;;;2.38;2.13;;;;;;;;;;6246895;23;19996;-61
2021/06/30 16:50:54;;;;;;;2.50;2.30;;;;;;;;;;6246492;23;20087;-61
2021/06/30 16:53:19;;;;;;;2.17;2.08;;;;;;;;;;6247000;23;20443;-61
2021/06/30 16:55:45;;;;;;;2.38;2.17;;;;;;;;;;6246916;23;20407;-61
2021/06/30 16:58:10;;;;;;;2.35;2.25;;;;;;;;;;6246765;23;20074;-61
2021/06/30 17:00:38;;;;;;;2.55;2.05;;;;;;;;;;6246529;23;20011;-62
2021/06/30 17:03:03;;;;;;;2.20;2.10;;;;;;;;;;6219806;23;20041;-61
2021/06/30 17:05:29;;;;;;;2.28;2.17;;;;;;;;;;6246552;23;20083;-62
2021/06/30 17:07:54;;;;;;;2.78;2.13;;;;;;;;;;6246447;23;19992;-61
2021/06/30 17:10:22;;;;;;;2.20;2.10;;;;;;;;;;6246630;23;20091;-62
2021/06/30 17:12:48;;;;;;;2.45;2.25;;;;;;;;;;6219574;23;20020;-61
2021/06/30 17:15:13;;;;;;;5.88;2.70;;;;;;;;;;6246452;23;20008;-62
2021/06/30 17:17:39;;;;;;;3.00;2.45;;;;;;;;;;6246342;23;20079;-62
2021/06/30 17:20:06;;;;;;;3.97;2.30;;;;;;;;;;6246324;23;20420;-62
2021/06/30 17:22:32;;;;;;;2.67;2.45;;;;;;;;;;6246178;23;20043;-62
2021/06/30 17:25:00;;;;;;;2.40;2.20;;;;;;;;;;6246316;23;20051;-61
2021/06/30 17:27:26;;;;;;;3.20;2.50;;;;;;;;;;6246441;23;20022;-61
2021/06/30 17:29:52;;;;;;;2.85;2.65;;;;;;;;;;6246783;23;20004;-61
2021/06/30 17:32:18;;;;;;;2.03;1.90;;;;;;;;;;6246181;23;20046;-61
2021/06/30 17:34:43;;;;;;;3.08;2.63;;;;;;;;;;6246360;23;20008;-62
2021/06/30 17:37:09;;;;;;;2.70;2.50;;;;;;;;;;6219543;23;20000;-62
2021/06/30 17:39:34;;;;;;;3.10;2.47;;;;;;;;;;6246423;23;20054;-61
2021/06/30 17:42:00;;;;;;;2.60;2.40;;;;;;;;;;6246224;23;20004;-61
2021/06/30 17:44:25;;;;;;;2.80;2.35;;;;;;;;;;6246110;23;20332;-61
2021/06/30 17:46:51;;;;;;;2.60;2.40;;;;;;;;;;6246659;23;20413;-61
2021/06/30 17:49:20;;;;;;;2.78;2.67;;;;;;;;;;6246178;23;20004;-61
2021/06/30 17:51:46;;;;;;;3.10;2.17;;;;;;;;;;6246508;23;20000;-61
2021/06/30 17:54:12;;;;;;;2.58;2.40;;;;;;;;;;6246080;23;20008;-61
2021/06/30 17:56:50;;;;;;;2.63;2.42;;;;;;;;;;6245974;23;19996;-61
2021/06/30 17:59:17;;;;;;;3.13;2.55;;;;;;;;;;6246045;23;20011;-61
2021/06/30 18:01:42;;;;;;;2.80;2.33;;;;;;;;;;6246013;23;20007;-62
2021/06/30 18:04:08;;;;;;;2.33;2.13;;;;;;;;;;6219720;23;20454;-62
2021/06/30 18:06:33;;;;;;;2.67;2.58;;;;;;;;;;6246523;23;19996;-61
2021/06/30 18:08:59;;;;;;;3.67;2.50;;;;;;;;;;6246321;23;20449;-61
2021/06/30 18:11:24;;;;;;;2.63;2.50;;;;;;;;;;6245673;23;20036;-61
2021/06/30 18:13:51;;;;;;;2.90;2.70;;;;;;;;;;6246594;23;20015;-61
2021/06/30 18:16:18;;;;;;;2.85;2.65;;;;;;;;;;6219099;23;20011;-61
2021/06/30 18:18:44;;;;;;;2.90;2.70;;;;;;;;;;6220060;23;20444;-60
2021/06/30 18:21:09;;;;;;;3.00;2.72;;;;;;;;;;6220033;23;19996;-66
2021/06/30 18:23:35;;;;;;;2.95;2.72;;;;;;;;;;6239718;23;20042;-61
2021/06/30 18:26:00;;;;;;;2.75;2.55;;;;;;;;;;6240751;23;20443;-61
2021/06/30 18:28:26;;;;;;;3.35;2.70;;;;;;;;;;6240628;23;20004;-61
2021/06/30 18:30:51;;;;;;;2.85;2.65;;;;;;;;;;6212980;23;20013;-61
2021/06/30 18:33:17;;;;;;;2.75;2.55;;;;;;;;;;6242987;23;20039;-66
2021/06/30 18:35:42;;;;;;;2.85;2.65;;;;;;;;;;6215860;23;20007;-66
2021/06/30 18:38:08;;;;;;;2.63;2.42;;;;;;;;;;6242787;23;20008;-66
2021/06/30 18:40:33;;;;;;;2.97;2.78;;;;;;;;;;6242918;23;20011;-66
2021/06/30 18:42:59;;;;;;;3.08;2.80;;;;;;;;;;6242685;23;20008;-66
2021/06/30 18:45:24;;;;;;;2.75;2.65;;;;;;;;;;6244079;23;20084;-66
2021/06/30 18:47:50;;;;;;;3.47;2.78;;;;;;;;;;6232827;23;20424;-66
2021/06/30 18:50:17;;;;;;;2.70;2.60;;;;;;;;;;6244357;23;20293;-62
2021/06/30 18:52:43;;;;;;;2.58;2.38;;;;;;;;;;6243358;23;20077;-62
2021/06/30 18:55:08;;;;;;;2.75;2.58;;;;;;;;;;6243558;23;20479;-61
2021/06/30 18:57:35;;;;;;;3.60;2.83;;;;;;;;;;6243710;23;20004;-61
2021/06/30 19:00:01;;;;;;;2.75;2.55;;;;;;;;;;6243672;23;20420;-62
2021/06/30 19:02:26;;;;;;;2.78;2.40;;;;;;;;;;6244067;23;20015;-67
2021/06/30 19:04:52;;;;;;;2.38;2.17;;;;;;;;;;6244174;23;20004;-66
2021/06/30 19:07:17;;;;;;;4.30;2.40;;;;;;;;;;6244494;23;20004;-67
2021/06/30 19:09:44;;;;;;;2.20;2.10;;;;;;;;;;6244191;23;19997;-67
2021/06/30 19:12:12;;;;;;;3.45;2.58;;;;;;;;;;6216152;23;20103;-66
2021/06/30 19:14:37;;;;;;;2.30;2.10;;;;;;;;;;6243924;23;20011;-66
2021/06/30 19:17:04;;;;;;;2.35;2.25;;;;;;;;;;6243905;23;20008;-66
2021/06/30 19:19:31;;;;;;;2.67;2.50;;;;;;;;;;6243285;23;20065;-62
2021/06/30 19:21:57;;;;;;;2.30;2.20;;;;;;;;;;6243116;23;20490;-62
2021/06/30 19:24:22;;;;;;;2.60;2.15;;;;;;;;;;6243557;23;20035;-61
2021/06/30 19:26:48;;;;;;;2.47;2.25;;;;;;;;;;6243627;23;20000;-62
2021/06/30 19:29:13;;;;;;;2.63;2.28;;;;;;;;;;6243257;23;20004;-62
2021/06/30 19:31:44;;;;;;;3.90;2.20;;;;;;;;;;6243803;23;20004;-67
2021/06/30 19:34:10;;;;;;;2.50;2.30;;;;;;;;;;6217420;23;20019;-67
2021/06/30 19:36:36;;;;;;;2.95;1.95;;;;;;;;;;6244178;23;20004;-67
2021/06/30 19:39:02;;;;;;;3.20;2.15;;;;;;;;;;6216820;23;20102;-66
2021/06/30 19:41:28;;;;;;;2.45;2.25;;;;;;;;;;6243510;23;20000;-67
2021/06/30 19:43:53;;;;;;;2.25;2.15;;;;;;;;;;6216793;23;20562;-66
2021/06/30 19:46:19;;;;;;;2.25;2.15;;;;;;;;;;6243408;23;20031;-66
2021/06/30 19:48:44;;;;;;;2.35;2.22;;;;;;;;;;6243865;23;20014;-67
2021/06/30 19:51:35;;;;;;;2.80;1.95;;;;;;;;;;6243734;23;20623;-66
2021/06/30 19:53:56;;;;;;;2.47;2.38;;;;;;;;;;6246190;23;20016;-61
2021/06/30 19:56:21;;;;;;;2.40;2.20;;;;;;;;;;6247322;23;20405;-65
2021/06/30 19:58:47;;;;;;;2.58;2.25;;;;;;;;;;6247526;23;20011;-65
2021/06/30 20:01:13;;;;;;;2.80;2.35;;;;;;;;;;6246852;23;20328;-64
2021/06/30 20:03:38;;;;;;;2.78;2.58;;;;;;;;;;6246745;23;20008;-61
2021/06/30 20:06:04;;;;;;;2.80;2.47;;;;;;;;;;6246856;23;20036;-61
2021/06/30 20:08:30;;;;;;;2.55;2.45;;;;;;;;;;6247246;23;20001;-66
2021/06/30 20:10:56;;;;;;;2.15;2.05;;;;;;;;;;6246553;23;19996;-65
2021/06/30 20:13:22;;;;;;;2.50;2.38;;;;;;;;;;6246936;23;20083;-65
2021/06/30 20:15:48;;;;;;;2.70;2.50;;;;;;;;;;6246938;23;20004;-61
2021/06/30 20:18:15;;;;;;;3.10;2.78;;;;;;;;;;6247009;23;20009;-60
2021/06/30 20:20:40;;;;;;;2.60;2.42;;;;;;;;;;6246592;23;20371;-61
2021/06/30 20:23:06;;;;;;;2.78;2.58;;;;;;;;;;6220544;23;20003;-61
2021/06/30 20:25:31;;;;;;;4.47;2.88;;;;;;;;;;6246881;23;19996;-61
2021/06/30 20:27:57;;;;;;;3.13;2.92;;;;;;;;;;6220383;23;20000;-61
2021/06/30 20:30:22;;;;;;;3.13;2.92;;;;;;;;;;6247031;23;20074;-61
2021/06/30 20:32:48;;;;;;;4.63;4.22;;;;;;;;;;6246965;23;20004;-60
2021/06/30 20:35:14;;;;;;;5.50;4.57;;;;;;;;;;6247105;23;20420;-61
2021/06/30 20:37:39;;;;;;;5.35;3.83;;;;;;;;;;6246729;23;20075;-62
2021/06/30 20:40:06;;;;;;;6.25;4.18;;;;;;;;;;6246804;23;20046;-62
2021/06/30 20:42:31;;;;;;;7.25;5.07;;;;;;;;;;6219791;23;20008;-62
2021/06/30 20:44:58;;;;;;;11.15;5.30;;;;;;;;;;6247162;23;20130;-62
2021/06/30 20:47:23;;;;;;;6.82;4.28;;;;;;;;;;6246580;23;20000;-62
2021/06/30 20:49:51;;;;;;;5.00;3.75;;;;;;;;;;6194916;23;20416;-62
2021/06/30 20:52:16;;;;;;;4.32;3.90;;;;;;;;;;6246673;23;20059;-62
2021/06/30 20:54:42;;;;;;;5.07;4.03;;;;;;;;;;6246935;23;20000;-62
2021/06/30 20:57:07;;;;;;;4.55;3.67;;;;;;;;;;6246874;23;20008;-61
2021/06/30 20:59:33;;;;;;;3.85;3.50;;;;;;;;;;6246687;23;20428;-62
2021/06/30 21:01:58;;;;;;;4.75;3.17;;;;;;;;;;6246517;23;20015;-62
2021/06/30 21:04:24;;;;;;;4.20;3.67;;;;;;;;;;6246918;23;19999;-62
2021/06/30 21:06:51;;;;;;;3.47;3.17;;;;;;;;;;6246262;23;20004;-62
2021/06/30 21:09:17;;;;;;;4.10;3.03;;;;;;;;;;6220070;23;20083;-62
2021/06/30 21:11:42;;;;;;;4.05;3.17;;;;;;;;;;6245962;23;20051;-61
2021/06/30 21:14:08;;;;;;;3.35;3.13;;;;;;;;;;6246764;23;20032;-61
2021/06/30 21:16:34;;;;;;;3.80;3.50;;;;;;;;;;6246081;23;20020;-61
2021/06/30 21:18:59;;;;;;;3.53;3.33;;;;;;;;;;6246731;23;20000;-61
2021/06/30 21:21:25;;;;;;;6.45;3.35;;;;;;;;;;6219710;23;20310;-61
2021/06/30 21:23:50;;;;;;;6.80;3.33;;;;;;;;;;6246908;23;20472;-61
2021/06/30 21:26:16;;;;;;;3.35;3.10;;;;;;;;;;6246121;23;20000;-61
2021/06/30 21:28:42;;;;;;;5.15;3.03;;;;;;;;;;6246092;23;19989;-62
2021/06/30 21:31:07;;;;;;;5.55;3.50;;;;;;;;;;6246216;23;20008;-61
2021/06/30 21:33:33;;;;;;;3.35;3.05;;;;;;;;;;6246180;23;20328;-66
2021/06/30 21:35:58;;;;;;;2.92;2.72;;;;;;;;;;6246424;23;20011;-66
2021/06/30 21:38:26;;;;;;;3.60;2.88;;;;;;;;;;6246495;23;20304;-66